sensor_id;sensor_type;location;lat;lon;timestamp;temperature;humidity
39095;DHT22;24840;47.508;19.376;2022-12-16T00:01:07;2.00;99.90
39095;DHT22;24840;47.508;19.376;2022-12-16T00:03:34;2.00;99.90
39095;DHT22;24840;47.508;19.376;2022-12-16T00:06:00;2.10;99.90
39095;DHT22;24840;47.508;19.376;2022-12-16T00:08:28;2.00;99.90
39095;DHT22;24840;47.508;19.376;2022-12-16T00:10:58;2.10;99.90
39095;DHT22;24840;47.508;19.376;2022-12-16T00:13:24;2.10;99.90
39095;DHT22;24840;47.508;19.376;2022-12-16T00:15:50;2.00;99.90
39095;DHT22;24840;47.508;19.376;2022-12-16T00:18:16;2.10;99.90
39095;DHT22;24840;47.508;19.376;2022-12-16T00:20:45;2.10;99.90
39095;DHT22;24840;47.508;19.376;2022-12-16T00:23:12;2.10;99.90
39095;DHT22;24840;47.508;19.376;2022-12-16T00:25:38;2.10;99.90
39095;DHT22;24840;47.508;19.376;2022-12-16T00:28:03;2.10;99.90
39095;DHT22;24840;47.508;19.376;2022-12-16T00:30:29;2.10;99.90
39095;DHT22;24840;47.508;19.376;2022-12-16T00:32:55;2.10;99.90
39095;DHT22;24840;47.508;19.376;2022-12-16T00:35:20;2.10;99.90
39095;DHT22;24840;47.508;19.376;2022-12-16T00:37:46;2.20;99.90
39095;DHT22;24840;47.508;19.376;2022-12-16T00:40:12;2.10;99.90
39095;DHT22;24840;47.508;19.376;2022-12-16T00:42:38;2.10;99.90
39095;DHT22;24840;47.508;19.376;2022-12-16T00:45:04;2.10;99.90
39095;DHT22;24840;47.508;19.376;2022-12-16T00:47:30;2.10;99.90
39095;DHT22;24840;47.508;19.376;2022-12-16T00:49:55;2.20;99.90
39095;DHT22;24840;47.508;19.376;2022-12-16T00:52:21;2.20;99.90
39095;DHT22;24840;47.508;19.376;2022-12-16T00:54:47;2.10;99.90
39095;DHT22;24840;47.508;19.376;2022-12-16T00:57:15;2.20;99.90
39095;DHT22;24840;47.508;19.376;2022-12-16T00:59:41;2.20;99.90
39095;DHT22;24840;47.508;19.376;2022-12-16T01:02:07;2.20;99.90
39095;DHT22;24840;47.508;19.376;2022-12-16T01:04:35;2.20;99.90
39095;DHT22;24840;47.508;19.376;2022-12-16T01:07:01;2.20;99.90
39095;DHT22;24840;47.508;19.376;2022-12-16T01:09:27;2.20;99.90
39095;DHT22;24840;47.508;19.376;2022-12-16T01:11:53;2.20;99.90
39095;DHT22;24840;47.508;19.376;2022-12-16T01:14:19;2.20;99.90
39095;DHT22;24840;47.508;19.376;2022-12-16T01:16:45;2.20;99.90
39095;DHT22;24840;47.508;19.376;2022-12-16T01:19:10;2.20;99.90
39095;DHT22;24840;47.508;19.376;2022-12-16T01:21:36;2.20;99.90
39095;DHT22;24840;47.508;19.376;2022-12-16T01:24:02;2.20;99.90
39095;DHT22;24840;47.508;19.376;2022-12-16T01:26:28;2.30;99.90
39095;DHT22;24840;47.508;19.376;2022-12-16T01:28:54;2.30;99.90
39095;DHT22;24840;47.508;19.376;2022-12-16T01:31:21;2.30;99.90
39095;DHT22;24840;47.508;19.376;2022-12-16T01:33:46;2.30;99.90
39095;DHT22;24840;47.508;19.376;2022-12-16T01:36:12;2.30;99.90
39095;DHT22;24840;47.508;19.376;2022-12-16T01:38:41;2.30;99.90
39095;DHT22;24840;47.508;19.376;2022-12-16T01:41:09;2.30;99.90
39095;DHT22;24840;47.508;19.376;2022-12-16T01:43:37;2.30;99.90
39095;DHT22;24840;47.508;19.376;2022-12-16T01:51:38;2.30;99.90
39095;DHT22;24840;47.508;19.376;2022-12-16T01:54:26;2.30;99.90
39095;DHT22;24840;47.508;19.376;2022-12-16T01:56:57;2.40;99.90
39095;DHT22;24840;47.508;19.376;2022-12-16T01:59:24;2.40;99.90
39095;DHT22;24840;47.508;19.376;2022-12-16T02:01:52;2.40;99.90
39095;DHT22;24840;47.508;19.376;2022-12-16T02:04:18;2.40;99.90
39095;DHT22;24840;47.508;19.376;2022-12-16T02:06:43;2.40;99.90
39095;DHT22;24840;47.508;19.376;2022-12-16T02:09:11;2.40;99.90
39095;DHT22;24840;47.508;19.376;2022-12-16T02:17:13;2.40;99.90
39095;DHT22;24840;47.508;19.376;2022-12-16T02:25:56;2.50;99.90
39095;DHT22;24840;47.508;19.376;2022-12-16T02:28:57;2.50;99.90
39095;DHT22;24840;47.508;19.376;2022-12-16T02:34:17;2.50;99.90
39095;DHT22;24840;47.508;19.376;2022-12-16T02:39:36;2.50;99.90
39095;DHT22;24840;47.508;19.376;2022-12-16T02:42:14;2.50;99.90
39095;DHT22;24840;47.508;19.376;2022-12-16T02:45:00;2.50;99.90
39095;DHT22;24840;47.508;19.376;2022-12-16T02:47:28;2.50;99.90
39095;DHT22;24840;47.508;19.376;2022-12-16T02:49:55;2.50;99.90
39095;DHT22;24840;47.508;19.376;2022-12-16T02:52:24;2.50;99.90
39095;DHT22;24840;47.508;19.376;2022-12-16T02:54:54;2.60;99.90
39095;DHT22;24840;47.508;19.376;2022-12-16T03:00:13;2.60;99.90
39095;DHT22;24840;47.508;19.376;2022-12-16T03:05:31;2.60;99.90
39095;DHT22;24840;47.508;19.376;2022-12-16T03:08:02;2.60;99.90
39095;DHT22;24840;47.508;19.376;2022-12-16T03:10:34;2.60;99.90
39095;DHT22;24840;47.508;19.376;2022-12-16T03:13:04;2.60;99.90
39095;DHT22;24840;47.508;19.376;2022-12-16T03:15:32;2.70;99.90
39095;DHT22;24840;47.508;19.376;2022-12-16T03:17:59;2.60;99.90
39095;DHT22;24840;47.508;19.376;2022-12-16T03:20:49;2.70;99.90
39095;DHT22;24840;47.508;19.376;2022-12-16T03:23:21;2.70;99.90
39095;DHT22;24840;47.508;19.376;2022-12-16T03:25:49;2.70;99.90
39095;DHT22;24840;47.508;19.376;2022-12-16T03:28:24;2.70;99.90
39095;DHT22;24840;47.508;19.376;2022-12-16T03:30:59;2.70;99.90
39095;DHT22;24840;47.508;19.376;2022-12-16T03:33:28;2.70;99.90
39095;DHT22;24840;47.508;19.376;2022-12-16T03:36:12;2.70;99.90
39095;DHT22;24840;47.508;19.376;2022-12-16T03:38:40;2.70;99.90
39095;DHT22;24840;47.508;19.376;2022-12-16T03:41:08;2.70;99.90
39095;DHT22;24840;47.508;19.376;2022-12-16T03:43:35;2.70;99.90
39095;DHT22;24840;47.508;19.376;2022-12-16T03:46:04;2.70;99.90
39095;DHT22;24840;47.508;19.376;2022-12-16T03:48:30;2.70;99.90
39095;DHT22;24840;47.508;19.376;2022-12-16T03:50:56;2.70;99.90
39095;DHT22;24840;47.508;19.376;2022-12-16T03:53:22;2.80;99.90
39095;DHT22;24840;47.508;19.376;2022-12-16T03:55:54;2.70;99.90
39095;DHT22;24840;47.508;19.376;2022-12-16T03:58:20;2.80;99.90
39095;DHT22;24840;47.508;19.376;2022-12-16T04:00:46;2.80;99.90
39095;DHT22;24840;47.508;19.376;2022-12-16T04:03:12;2.80;99.90
39095;DHT22;24840;47.508;19.376;2022-12-16T04:05:37;2.80;99.90
39095;DHT22;24840;47.508;19.376;2022-12-16T04:08:03;2.80;99.90
39095;DHT22;24840;47.508;19.376;2022-12-16T04:10:29;2.80;99.90
39095;DHT22;24840;47.508;19.376;2022-12-16T04:13:13;2.80;99.90
39095;DHT22;24840;47.508;19.376;2022-12-16T04:15:57;2.80;99.90
39095;DHT22;24840;47.508;19.376;2022-12-16T04:18:59;2.80;99.90
39095;DHT22;24840;47.508;19.376;2022-12-16T04:21:43;2.80;99.90
39095;DHT22;24840;47.508;19.376;2022-12-16T04:24:29;2.80;99.90
39095;DHT22;24840;47.508;19.376;2022-12-16T04:26:55;2.80;99.90
39095;DHT22;24840;47.508;19.376;2022-12-16T04:29:39;2.80;99.90
39095;DHT22;24840;47.508;19.376;2022-12-16T04:32:24;2.80;99.90
39095;DHT22;24840;47.508;19.376;2022-12-16T04:34:50;2.80;99.90
39095;DHT22;24840;47.508;19.376;2022-12-16T04:37:17;2.80;99.90
39095;DHT22;24840;47.508;19.376;2022-12-16T04:40:01;2.80;99.90
39095;DHT22;24840;47.508;19.376;2022-12-16T04:42:47;2.80;99.90
39095;DHT22;24840;47.508;19.376;2022-12-16T04:45:31;2.80;99.90
39095;DHT22;24840;47.508;19.376;2022-12-16T04:48:15;2.80;99.90
39095;DHT22;24840;47.508;19.376;2022-12-16T04:51:00;2.80;99.90
39095;DHT22;24840;47.508;19.376;2022-12-16T04:53:44;2.80;99.90
39095;DHT22;24840;47.508;19.376;2022-12-16T04:56:29;2.90;99.90
39095;DHT22;24840;47.508;19.376;2022-12-16T04:59:13;2.90;99.90
39095;DHT22;24840;47.508;19.376;2022-12-16T05:01:57;2.90;99.90
39095;DHT22;24840;47.508;19.376;2022-12-16T05:04:41;2.80;99.90
39095;DHT22;24840;47.508;19.376;2022-12-16T05:07:25;2.90;99.90
39095;DHT22;24840;47.508;19.376;2022-12-16T05:10:09;2.90;99.90
39095;DHT22;24840;47.508;19.376;2022-12-16T05:12:54;2.90;99.90
39095;DHT22;24840;47.508;19.376;2022-12-16T05:15:39;2.90;99.90
39095;DHT22;24840;47.508;19.376;2022-12-16T05:18:23;2.90;99.90
39095;DHT22;24840;47.508;19.376;2022-12-16T05:21:07;2.90;99.90
39095;DHT22;24840;47.508;19.376;2022-12-16T05:23:51;2.90;99.90
39095;DHT22;24840;47.508;19.376;2022-12-16T05:26:35;2.90;99.90
39095;DHT22;24840;47.508;19.376;2022-12-16T05:29:19;3.00;99.90
39095;DHT22;24840;47.508;19.376;2022-12-16T05:32:03;2.90;99.90
39095;DHT22;24840;47.508;19.376;2022-12-16T05:34:47;3.00;99.90
39095;DHT22;24840;47.508;19.376;2022-12-16T05:37:31;3.00;99.90
39095;DHT22;24840;47.508;19.376;2022-12-16T05:40:15;3.10;99.90
39095;DHT22;24840;47.508;19.376;2022-12-16T05:43:01;3.10;99.90
39095;DHT22;24840;47.508;19.376;2022-12-16T05:45:45;3.10;99.90
39095;DHT22;24840;47.508;19.376;2022-12-16T05:48:30;3.10;99.90
39095;DHT22;24840;47.508;19.376;2022-12-16T05:51:14;3.10;99.90
39095;DHT22;24840;47.508;19.376;2022-12-16T05:53:58;3.10;99.90
39095;DHT22;24840;47.508;19.376;2022-12-16T05:56:42;3.10;99.90
39095;DHT22;24840;47.508;19.376;2022-12-16T05:59:26;3.10;99.90
39095;DHT22;24840;47.508;19.376;2022-12-16T06:02:10;3.10;99.90
39095;DHT22;24840;47.508;19.376;2022-12-16T06:04:54;3.10;99.90
39095;DHT22;24840;47.508;19.376;2022-12-16T06:07:38;3.10;99.90
39095;DHT22;24840;47.508;19.376;2022-12-16T06:10:23;3.10;99.90
39095;DHT22;24840;47.508;19.376;2022-12-16T06:13:07;3.20;99.90
39095;DHT22;24840;47.508;19.376;2022-12-16T06:15:53;3.20;99.90
39095;DHT22;24840;47.508;19.376;2022-12-16T06:18:37;3.20;99.90
39095;DHT22;24840;47.508;19.376;2022-12-16T06:21:21;3.10;99.90
39095;DHT22;24840;47.508;19.376;2022-12-16T06:24:05;3.20;99.90
39095;DHT22;24840;47.508;19.376;2022-12-16T06:26:50;3.10;99.90
39095;DHT22;24840;47.508;19.376;2022-12-16T06:29:34;3.10;99.90
39095;DHT22;24840;47.508;19.376;2022-12-16T06:32:18;3.10;99.90
39095;DHT22;24840;47.508;19.376;2022-12-16T06:35:02;3.20;99.90
39095;DHT22;24840;47.508;19.376;2022-12-16T06:37:48;3.10;99.90
39095;DHT22;24840;47.508;19.376;2022-12-16T06:40:33;3.20;99.90
39095;DHT22;24840;47.508;19.376;2022-12-16T06:43:17;3.20;99.90
39095;DHT22;24840;47.508;19.376;2022-12-16T06:46:01;3.20;99.90
39095;DHT22;24840;47.508;19.376;2022-12-16T06:48:45;3.20;99.90
39095;DHT22;24840;47.508;19.376;2022-12-16T06:51:30;3.20;99.90
39095;DHT22;24840;47.508;19.376;2022-12-16T06:54:14;3.20;99.90
39095;DHT22;24840;47.508;19.376;2022-12-16T06:57:00;3.20;99.90
39095;DHT22;24840;47.508;19.376;2022-12-16T06:59:44;3.20;99.90
39095;DHT22;24840;47.508;19.376;2022-12-16T07:02:28;3.30;99.90
39095;DHT22;24840;47.508;19.376;2022-12-16T07:05:12;3.30;99.90
39095;DHT22;24840;47.508;19.376;2022-12-16T07:07:57;3.40;99.90
39095;DHT22;24840;47.508;19.376;2022-12-16T07:10:41;3.30;99.90
39095;DHT22;24840;47.508;19.376;2022-12-16T07:13:25;3.30;99.90
39095;DHT22;24840;47.508;19.376;2022-12-16T07:16:09;3.30;99.90
39095;DHT22;24840;47.508;19.376;2022-12-16T07:19:04;3.40;99.90
39095;DHT22;24840;47.508;19.376;2022-12-16T07:21:48;3.40;99.90
39095;DHT22;24840;47.508;19.376;2022-12-16T07:24:40;3.40;99.90
39095;DHT22;24840;47.508;19.376;2022-12-16T07:27:24;3.40;99.90
39095;DHT22;24840;47.508;19.376;2022-12-16T07:30:08;3.40;99.90
39095;DHT22;24840;47.508;19.376;2022-12-16T07:32:53;3.50;99.90
39095;DHT22;24840;47.508;19.376;2022-12-16T07:35:37;3.40;99.90
39095;DHT22;24840;47.508;19.376;2022-12-16T07:38:21;3.50;99.90
39095;DHT22;24840;47.508;19.376;2022-12-16T07:41:05;3.50;99.90
39095;DHT22;24840;47.508;19.376;2022-12-16T07:43:49;3.50;99.90
39095;DHT22;24840;47.508;19.376;2022-12-16T07:46:34;3.50;99.90
39095;DHT22;24840;47.508;19.376;2022-12-16T07:49:18;3.60;99.90
39095;DHT22;24840;47.508;19.376;2022-12-16T07:52:02;3.60;99.90
39095;DHT22;24840;47.508;19.376;2022-12-16T07:54:46;3.60;99.90
39095;DHT22;24840;47.508;19.376;2022-12-16T07:57:30;3.60;99.90
39095;DHT22;24840;47.508;19.376;2022-12-16T08:00:15;3.70;99.90
39095;DHT22;24840;47.508;19.376;2022-12-16T08:02:59;3.70;99.90
39095;DHT22;24840;47.508;19.376;2022-12-16T08:05:43;3.70;99.90
39095;DHT22;24840;47.508;19.376;2022-12-16T08:08:27;3.80;99.90
39095;DHT22;24840;47.508;19.376;2022-12-16T08:11:11;3.80;99.90
39095;DHT22;24840;47.508;19.376;2022-12-16T08:13:55;3.90;99.90
39095;DHT22;24840;47.508;19.376;2022-12-16T08:16:39;4.00;99.90
39095;DHT22;24840;47.508;19.376;2022-12-16T08:19:23;4.00;99.90
39095;DHT22;24840;47.508;19.376;2022-12-16T08:22:08;4.10;99.90
39095;DHT22;24840;47.508;19.376;2022-12-16T08:24:52;4.20;99.90
39095;DHT22;24840;47.508;19.376;2022-12-16T08:27:36;4.20;99.90
39095;DHT22;24840;47.508;19.376;2022-12-16T08:30:20;4.30;99.90
39095;DHT22;24840;47.508;19.376;2022-12-16T08:33:04;4.50;99.90
39095;DHT22;24840;47.508;19.376;2022-12-16T08:35:49;4.60;99.90
39095;DHT22;24840;47.508;19.376;2022-12-16T08:38:33;4.70;99.90
39095;DHT22;24840;47.508;19.376;2022-12-16T08:41:17;4.80;99.90
39095;DHT22;24840;47.508;19.376;2022-12-16T08:44:01;4.80;99.90
39095;DHT22;24840;47.508;19.376;2022-12-16T08:46:46;4.90;99.90
39095;DHT22;24840;47.508;19.376;2022-12-16T08:49:30;4.90;99.90
39095;DHT22;24840;47.508;19.376;2022-12-16T08:52:14;5.10;99.90
39095;DHT22;24840;47.508;19.376;2022-12-16T08:54:58;5.20;99.90
39095;DHT22;24840;47.508;19.376;2022-12-16T08:57:42;5.20;99.90
39095;DHT22;24840;47.508;19.376;2022-12-16T09:00:26;5.30;99.90
39095;DHT22;24840;47.508;19.376;2022-12-16T09:03:10;5.50;99.90
39095;DHT22;24840;47.508;19.376;2022-12-16T09:06:01;5.50;99.90
39095;DHT22;24840;47.508;19.376;2022-12-16T09:08:45;5.40;99.90
39095;DHT22;24840;47.508;19.376;2022-12-16T09:11:29;5.40;99.90
39095;DHT22;24840;47.508;19.376;2022-12-16T09:14:13;5.40;99.90
39095;DHT22;24840;47.508;19.376;2022-12-16T09:16:57;5.40;99.90
39095;DHT22;24840;47.508;19.376;2022-12-16T09:19:41;5.40;99.90
39095;DHT22;24840;47.508;19.376;2022-12-16T09:22:25;5.40;99.90
39095;DHT22;24840;47.508;19.376;2022-12-16T09:25:10;5.30;99.90
39095;DHT22;24840;47.508;19.376;2022-12-16T09:27:54;5.30;99.90
39095;DHT22;24840;47.508;19.376;2022-12-16T09:30:38;5.30;99.90
39095;DHT22;24840;47.508;19.376;2022-12-16T09:33:22;5.40;99.90
39095;DHT22;24840;47.508;19.376;2022-12-16T09:36:07;5.60;99.90
39095;DHT22;24840;47.508;19.376;2022-12-16T09:38:51;5.70;99.90
39095;DHT22;24840;47.508;19.376;2022-12-16T09:48:14;5.70;99.90
39095;DHT22;24840;47.508;19.376;2022-12-16T09:51:03;5.60;99.90
39095;DHT22;24840;47.508;19.376;2022-12-16T09:53:51;5.70;99.90
39095;DHT22;24840;47.508;19.376;2022-12-16T09:56:37;5.80;99.90
39095;DHT22;24840;47.508;19.376;2022-12-16T09:59:28;5.80;99.90
39095;DHT22;24840;47.508;19.376;2022-12-16T10:02:14;5.80;99.90
39095;DHT22;24840;47.508;19.376;2022-12-16T10:05:00;5.90;99.90
39095;DHT22;24840;47.508;19.376;2022-12-16T10:07:50;6.00;99.90
39095;DHT22;24840;47.508;19.376;2022-12-16T10:10:59;6.00;99.90
39095;DHT22;24840;47.508;19.376;2022-12-16T10:13:51;6.10;99.90
39095;DHT22;24840;47.508;19.376;2022-12-16T10:19:27;6.10;99.90
39095;DHT22;24840;47.508;19.376;2022-12-16T10:25:28;6.10;99.90
39095;DHT22;24840;47.508;19.376;2022-12-16T10:28:15;6.00;99.90
39095;DHT22;24840;47.508;19.376;2022-12-16T10:31:02;6.20;99.90
39095;DHT22;24840;47.508;19.376;2022-12-16T10:33:54;6.30;99.90
39095;DHT22;24840;47.508;19.376;2022-12-16T10:36:38;6.30;99.90
39095;DHT22;24840;47.508;19.376;2022-12-16T10:39:24;6.30;99.90
39095;DHT22;24840;47.508;19.376;2022-12-16T10:42:32;6.40;99.90
39095;DHT22;24840;47.508;19.376;2022-12-16T10:45:27;6.40;99.90
39095;DHT22;24840;47.508;19.376;2022-12-16T10:48:12;6.40;99.90
39095;DHT22;24840;47.508;19.376;2022-12-16T10:51:00;6.20;99.90
39095;DHT22;24840;47.508;19.376;2022-12-16T10:53:45;6.20;99.90
39095;DHT22;24840;47.508;19.376;2022-12-16T10:56:57;6.20;99.90
39095;DHT22;24840;47.508;19.376;2022-12-16T10:59:43;6.10;99.90
39095;DHT22;24840;47.508;19.376;2022-12-16T11:02:28;6.10;99.90
39095;DHT22;24840;47.508;19.376;2022-12-16T11:08:32;6.00;99.90
39095;DHT22;24840;47.508;19.376;2022-12-16T11:14:25;6.00;99.90
39095;DHT22;24840;47.508;19.376;2022-12-16T11:20:17;6.10;99.90
39095;DHT22;24840;47.508;19.376;2022-12-16T11:23:08;6.00;99.90
39095;DHT22;24840;47.508;19.376;2022-12-16T11:26:28;6.00;99.90
39095;DHT22;24840;47.508;19.376;2022-12-16T11:29:17;6.00;99.90
39095;DHT22;24840;47.508;19.376;2022-12-16T11:34:55;6.00;99.90
39095;DHT22;24840;47.508;19.376;2022-12-16T11:37:42;5.90;99.90
39095;DHT22;24840;47.508;19.376;2022-12-16T11:40:28;5.90;99.90
39095;DHT22;24840;47.508;19.376;2022-12-16T11:43:15;5.90;99.90
39095;DHT22;24840;47.508;19.376;2022-12-16T11:46:03;5.90;99.90
39095;DHT22;24840;47.508;19.376;2022-12-16T11:49:00;5.80;99.90
39095;DHT22;24840;47.508;19.376;2022-12-16T11:51:56;5.80;99.90
39095;DHT22;24840;47.508;19.376;2022-12-16T11:55:03;5.70;99.90
39095;DHT22;24840;47.508;19.376;2022-12-16T11:58:10;5.70;99.90
39095;DHT22;24840;47.508;19.376;2022-12-16T12:01:11;5.70;99.90
39095;DHT22;24840;47.508;19.376;2022-12-16T12:03:57;5.60;99.90
39095;DHT22;24840;47.508;19.376;2022-12-16T12:12:58;5.40;99.90
39095;DHT22;24840;47.508;19.376;2022-12-16T12:16:00;5.50;99.90
39095;DHT22;24840;47.508;19.376;2022-12-16T12:19:03;5.50;99.90
39095;DHT22;24840;47.508;19.376;2022-12-16T12:22:00;5.50;99.90
39095;DHT22;24840;47.508;19.376;2022-12-16T12:24:56;5.50;99.90
39095;DHT22;24840;47.508;19.376;2022-12-16T12:31:22;5.40;99.90
39095;DHT22;24840;47.508;19.376;2022-12-16T12:34:08;5.30;99.90
39095;DHT22;24840;47.508;19.376;2022-12-16T12:37:06;5.30;99.90
39095;DHT22;24840;47.508;19.376;2022-12-16T12:46:34;5.40;99.90
39095;DHT22;24840;47.508;19.376;2022-12-16T12:56:16;5.60;99.90
39095;DHT22;24840;47.508;19.376;2022-12-16T12:59:14;5.70;99.90
39095;DHT22;24840;47.508;19.376;2022-12-16T13:02:02;5.70;99.90
39095;DHT22;24840;47.508;19.376;2022-12-16T13:04:49;5.90;99.90
39095;DHT22;24840;47.508;19.376;2022-12-16T13:07:33;5.80;99.90
39095;DHT22;24840;47.508;19.376;2022-12-16T13:22:26;6.10;99.90
39095;DHT22;24840;47.508;19.376;2022-12-16T13:28:32;5.90;99.90
39095;DHT22;24840;47.508;19.376;2022-12-16T13:31:17;5.90;99.90
39095;DHT22;24840;47.508;19.376;2022-12-16T13:34:20;5.80;99.90
39095;DHT22;24840;47.508;19.376;2022-12-16T13:37:22;5.80;99.90
39095;DHT22;24840;47.508;19.376;2022-12-16T13:40:17;5.70;99.90
39095;DHT22;24840;47.508;19.376;2022-12-16T13:43:03;5.70;99.90
39095;DHT22;24840;47.508;19.376;2022-12-16T13:48:47;5.70;99.90
39095;DHT22;24840;47.508;19.376;2022-12-16T13:54:46;5.70;99.90
39095;DHT22;24840;47.508;19.376;2022-12-16T13:57:36;5.70;99.90
39095;DHT22;24840;47.508;19.376;2022-12-16T14:00:25;5.60;99.90
39095;DHT22;24840;47.508;19.376;2022-12-16T14:03:23;5.60;99.90
39095;DHT22;24840;47.508;19.376;2022-12-16T14:06:16;5.60;99.90
39095;DHT22;24840;47.508;19.376;2022-12-16T14:09:01;5.60;99.90
39095;DHT22;24840;47.508;19.376;2022-12-16T14:12:08;5.60;99.90
39095;DHT22;24840;47.508;19.376;2022-12-16T14:15:07;5.60;99.90
39095;DHT22;24840;47.508;19.376;2022-12-16T14:17:58;5.60;99.90
39095;DHT22;24840;47.508;19.376;2022-12-16T14:20:53;5.60;99.90
39095;DHT22;24840;47.508;19.376;2022-12-16T14:24:03;5.60;99.90
39095;DHT22;24840;47.508;19.376;2022-12-16T14:26:49;5.50;99.90
39095;DHT22;24840;47.508;19.376;2022-12-16T14:29:34;5.50;99.90
39095;DHT22;24840;47.508;19.376;2022-12-16T14:32:28;5.40;99.90
39095;DHT22;24840;47.508;19.376;2022-12-16T14:35:22;5.40;99.90
39095;DHT22;24840;47.508;19.376;2022-12-16T14:38:26;5.40;99.90
39095;DHT22;24840;47.508;19.376;2022-12-16T14:41:16;5.40;99.90
39095;DHT22;24840;47.508;19.376;2022-12-16T14:44:15;5.40;99.90
39095;DHT22;24840;47.508;19.376;2022-12-16T14:46:59;5.40;99.90
39095;DHT22;24840;47.508;19.376;2022-12-16T14:49:50;5.30;99.90
39095;DHT22;24840;47.508;19.376;2022-12-16T14:52:34;5.30;99.90
39095;DHT22;24840;47.508;19.376;2022-12-16T14:55:30;5.30;99.90
39095;DHT22;24840;47.508;19.376;2022-12-16T14:58:17;5.30;99.90
39095;DHT22;24840;47.508;19.376;2022-12-16T15:01:13;5.30;99.90
39095;DHT22;24840;47.508;19.376;2022-12-16T15:03:59;5.20;99.90
39095;DHT22;24840;47.508;19.376;2022-12-16T15:06:47;5.20;99.90
39095;DHT22;24840;47.508;19.376;2022-12-16T15:09:46;5.20;99.90
39095;DHT22;24840;47.508;19.376;2022-12-16T15:12:37;5.20;99.90
39095;DHT22;24840;47.508;19.376;2022-12-16T15:15:29;5.20;99.90
39095;DHT22;24840;47.508;19.376;2022-12-16T15:18:25;5.20;99.90
39095;DHT22;24840;47.508;19.376;2022-12-16T15:21:12;5.20;99.90
39095;DHT22;24840;47.508;19.376;2022-12-16T15:23:56;5.10;99.90
39095;DHT22;24840;47.508;19.376;2022-12-16T15:30:35;5.10;99.90
39095;DHT22;24840;47.508;19.376;2022-12-16T15:33:25;5.10;99.90
39095;DHT22;24840;47.508;19.376;2022-12-16T15:36:30;5.00;99.90
39095;DHT22;24840;47.508;19.376;2022-12-16T15:42:29;5.00;99.90
39095;DHT22;24840;47.508;19.376;2022-12-16T15:45:27;5.10;99.90
39095;DHT22;24840;47.508;19.376;2022-12-16T15:51:29;5.10;99.90
39095;DHT22;24840;47.508;19.376;2022-12-16T15:54:23;5.10;99.90
39095;DHT22;24840;47.508;19.376;2022-12-16T15:57:54;5.00;99.90
39095;DHT22;24840;47.508;19.376;2022-12-16T16:00:39;5.00;99.90
39095;DHT22;24840;47.508;19.376;2022-12-16T16:03:30;5.00;99.90
39095;DHT22;24840;47.508;19.376;2022-12-16T16:06:21;4.90;99.90
39095;DHT22;24840;47.508;19.376;2022-12-16T16:12:06;4.90;99.90
39095;DHT22;24840;47.508;19.376;2022-12-16T16:14:51;4.90;99.90
39095;DHT22;24840;47.508;19.376;2022-12-16T16:17:35;4.90;99.90
39095;DHT22;24840;47.508;19.376;2022-12-16T16:20:19;4.90;99.90
39095;DHT22;24840;47.508;19.376;2022-12-16T16:23:03;4.90;99.90
39095;DHT22;24840;47.508;19.376;2022-12-16T16:25:48;4.90;99.90
39095;DHT22;24840;47.508;19.376;2022-12-16T16:28:33;4.90;99.90
39095;DHT22;24840;47.508;19.376;2022-12-16T16:31:17;4.80;99.90
39095;DHT22;24840;47.508;19.376;2022-12-16T16:34:01;4.80;99.90
39095;DHT22;24840;47.508;19.376;2022-12-16T16:36:50;4.80;99.90
39095;DHT22;24840;47.508;19.376;2022-12-16T16:39:35;4.80;99.90
39095;DHT22;24840;47.508;19.376;2022-12-16T16:42:19;4.80;99.90
39095;DHT22;24840;47.508;19.376;2022-12-16T16:45:03;4.80;99.90
39095;DHT22;24840;47.508;19.376;2022-12-16T16:47:48;4.70;99.90
39095;DHT22;24840;47.508;19.376;2022-12-16T16:50:32;4.70;99.90
39095;DHT22;24840;47.508;19.376;2022-12-16T16:53:16;4.70;99.90
39095;DHT22;24840;47.508;19.376;2022-12-16T16:56:00;4.70;99.90
39095;DHT22;24840;47.508;19.376;2022-12-16T16:58:45;4.70;99.90
39095;DHT22;24840;47.508;19.376;2022-12-16T17:01:29;4.60;99.90
39095;DHT22;24840;47.508;19.376;2022-12-16T17:04:13;4.60;99.90
39095;DHT22;24840;47.508;19.376;2022-12-16T17:06:57;4.50;99.90
39095;DHT22;24840;47.508;19.376;2022-12-16T17:09:41;4.60;99.90
39095;DHT22;24840;47.508;19.376;2022-12-16T17:12:28;4.60;99.90
39095;DHT22;24840;47.508;19.376;2022-12-16T17:15:19;4.70;99.90
39095;DHT22;24840;47.508;19.376;2022-12-16T17:18:05;4.70;99.90
39095;DHT22;24840;47.508;19.376;2022-12-16T17:20:50;4.70;99.90
39095;DHT22;24840;47.508;19.376;2022-12-16T17:23:35;4.60;99.90
39095;DHT22;24840;47.508;19.376;2022-12-16T17:26:19;4.50;99.90
39095;DHT22;24840;47.508;19.376;2022-12-16T17:29:04;4.60;99.90
39095;DHT22;24840;47.508;19.376;2022-12-16T17:31:48;4.60;99.90
39095;DHT22;24840;47.508;19.376;2022-12-16T17:34:32;4.50;99.90
39095;DHT22;24840;47.508;19.376;2022-12-16T17:37:16;4.50;99.90
39095;DHT22;24840;47.508;19.376;2022-12-16T17:40:00;4.50;99.90
39095;DHT22;24840;47.508;19.376;2022-12-16T17:42:45;4.50;99.90
39095;DHT22;24840;47.508;19.376;2022-12-16T17:45:29;4.50;99.90
39095;DHT22;24840;47.508;19.376;2022-12-16T17:48:13;4.40;99.90
39095;DHT22;24840;47.508;19.376;2022-12-16T17:50:57;4.50;99.90
39095;DHT22;24840;47.508;19.376;2022-12-16T17:53:41;4.50;99.90
39095;DHT22;24840;47.508;19.376;2022-12-16T17:56:25;4.40;99.90
39095;DHT22;24840;47.508;19.376;2022-12-16T17:59:09;4.40;99.90
39095;DHT22;24840;47.508;19.376;2022-12-16T18:01:53;4.50;99.90
39095;DHT22;24840;47.508;19.376;2022-12-16T18:04:37;4.50;99.90
39095;DHT22;24840;47.508;19.376;2022-12-16T18:07:22;4.50;99.90
39095;DHT22;24840;47.508;19.376;2022-12-16T18:10:06;4.50;99.90
39095;DHT22;24840;47.508;19.376;2022-12-16T18:12:51;4.50;99.90
39095;DHT22;24840;47.508;19.376;2022-12-16T18:15:35;4.40;99.90
39095;DHT22;24840;47.508;19.376;2022-12-16T18:18:20;4.50;99.90
39095;DHT22;24840;47.508;19.376;2022-12-16T18:21:11;4.40;99.90
39095;DHT22;24840;47.508;19.376;2022-12-16T18:23:56;4.50;99.90
39095;DHT22;24840;47.508;19.376;2022-12-16T18:26:40;4.40;99.90
39095;DHT22;24840;47.508;19.376;2022-12-16T18:29:24;4.40;99.90
39095;DHT22;24840;47.508;19.376;2022-12-16T18:32:09;4.40;99.90
39095;DHT22;24840;47.508;19.376;2022-12-16T18:34:53;4.30;99.90
39095;DHT22;24840;47.508;19.376;2022-12-16T18:37:37;4.40;99.90
39095;DHT22;24840;47.508;19.376;2022-12-16T18:40:21;4.40;99.90
39095;DHT22;24840;47.508;19.376;2022-12-16T18:43:05;4.30;99.90
39095;DHT22;24840;47.508;19.376;2022-12-16T18:45:53;4.30;99.90
39095;DHT22;24840;47.508;19.376;2022-12-16T18:48:37;4.30;99.90
39095;DHT22;24840;47.508;19.376;2022-12-16T18:51:22;4.20;99.90
39095;DHT22;24840;47.508;19.376;2022-12-16T18:54:06;4.20;99.90
39095;DHT22;24840;47.508;19.376;2022-12-16T18:56:50;4.20;99.90
39095;DHT22;24840;47.508;19.376;2022-12-16T18:59:34;4.10;99.90